New Salem, North Carolina
Current Conditions -  °F | °C
As of 9:55 AM on Thursday 30 Oct 2014 (Local Time) from KHBI Reporting Station
Clear Clear  
Wind Chill: 56°   Ceiling: Unl
Heat Index: 56°   Visibility: 10mi
Dew Point: 41°   Wind: 7mph
Humidity: 57%   Direction: 350°N
Pressure: 30.09"   Gusts: NA
Location:  35.8558°N, 79.7985°W
Report Text: KHBI 301355Z AUTO 35006KT 10SM CLR 13/05 A3009 RMK AO2 T01320049
Loading
Personal Weather Stations






























Interactive Weather Map
Tropical Storm Tracking
New forecast layout! Learn more

10-Day Weather Forecast

Advertisements
Track Severe Weather on mobile